sensor_id;sensor_type;location;lat;lon;timestamp;pressure;altitude;pressure_sealevel;temperature;humidity
64200;BME280;50516;52.272;5.136;2023-02-28T00:00:30;103225.19;;;5.20;71.38
64200;BME280;50516;52.272;5.136;2023-02-28T00:02:56;103228.09;;;5.18;71.51
64200;BME280;50516;52.272;5.136;2023-02-28T00:05:23;103227.25;;;5.18;71.46
64200;BME280;50516;52.272;5.136;2023-02-28T00:07:49;103224.00;;;5.22;71.07
64200;BME280;50516;52.272;5.136;2023-02-28T00:10:17;103225.72;;;5.23;71.10
64200;BME280;50516;52.272;5.136;2023-02-28T00:12:48;103228.28;;;5.25;71.41
64200;BME280;50516;52.272;5.136;2023-02-28T00:15:14;103222.44;;;5.28;71.09
64200;BME280;50516;52.272;5.136;2023-02-28T00:17:39;103230.59;;;5.28;71.04
64200;BME280;50516;52.272;5.136;2023-02-28T00:20:06;103227.53;;;5.31;71.16
64200;BME280;50516;52.272;5.136;2023-02-28T00:22:36;103226.88;;;5.29;71.19
64200;BME280;50516;52.272;5.136;2023-02-28T00:25:02;103219.53;;;5.29;71.23
64200;BME280;50516;52.272;5.136;2023-02-28T00:27:29;103223.34;;;5.20;71.41
64200;BME280;50516;52.272;5.136;2023-02-28T00:29:54;103220.59;;;5.28;71.49
64200;BME280;50516;52.272;5.136;2023-02-28T00:32:20;103213.44;;;5.27;71.41
64200;BME280;50516;52.272;5.136;2023-02-28T00:34:45;103224.16;;;5.29;71.78
64200;BME280;50516;52.272;5.136;2023-02-28T00:37:11;103230.16;;;5.16;71.75
64200;BME280;50516;52.272;5.136;2023-02-28T00:39:40;103225.41;;;5.10;72.14
64200;BME280;50516;52.272;5.136;2023-02-28T00:42:06;103220.28;;;5.15;72.14
64200;BME280;50516;52.272;5.136;2023-02-28T00:44:32;103226.91;;;5.21;71.84
64200;BME280;50516;52.272;5.136;2023-02-28T00:46:58;103224.00;;;5.22;72.29
64200;BME280;50516;52.272;5.136;2023-02-28T00:49:24;103221.28;;;5.22;72.20
64200;BME280;50516;52.272;5.136;2023-02-28T00:51:50;103218.69;;;5.29;72.15
64200;BME280;50516;52.272;5.136;2023-02-28T00:54:16;103218.47;;;5.39;72.43
64200;BME280;50516;52.272;5.136;2023-02-28T00:56:41;103216.41;;;5.41;72.75
64200;BME280;50516;52.272;5.136;2023-02-28T00:59:07;103222.25;;;5.38;73.18
64200;BME280;50516;52.272;5.136;2023-02-28T01:01:32;103213.72;;;5.33;73.09
64200;BME280;50516;52.272;5.136;2023-02-28T01:03:57;103215.78;;;5.30;72.97
64200;BME280;50516;52.272;5.136;2023-02-28T01:06:23;103222.25;;;5.38;72.85
64200;BME280;50516;52.272;5.136;2023-02-28T01:08:49;103225.63;;;5.40;72.76
64200;BME280;50516;52.272;5.136;2023-02-28T01:11:16;103235.31;;;5.42;72.52
64200;BME280;50516;52.272;5.136;2023-02-28T01:13:42;103237.72;;;5.37;72.64
64200;BME280;50516;52.272;5.136;2023-02-28T01:16:07;103226.59;;;5.47;72.79
64200;BME280;50516;52.272;5.136;2023-02-28T01:18:33;103228.31;;;5.48;72.38
64200;BME280;50516;52.272;5.136;2023-02-28T01:21:03;103228.97;;;5.50;72.38
64200;BME280;50516;52.272;5.136;2023-02-28T01:23:28;103223.34;;;5.52;72.40
64200;BME280;50516;52.272;5.136;2023-02-28T01:25:54;103227.75;;;5.53;72.46
64200;BME280;50516;52.272;5.136;2023-02-28T01:28:20;103217.88;;;5.52;72.78
64200;BME280;50516;52.272;5.136;2023-02-28T01:30:50;103222.31;;;5.53;72.72
64200;BME280;50516;52.272;5.136;2023-02-28T01:33:15;103207.34;;;5.48;72.79
64200;BME280;50516;52.272;5.136;2023-02-28T01:35:41;103223.81;;;5.55;72.74
64200;BME280;50516;52.272;5.136;2023-02-28T01:38:06;103220.47;;;5.45;73.38
64200;BME280;50516;52.272;5.136;2023-02-28T01:40:32;103206.31;;;5.49;72.87
64200;BME280;50516;52.272;5.136;2023-02-28T01:42:57;103203.25;;;5.53;73.28
64200;BME280;50516;52.272;5.136;2023-02-28T01:45:30;103200.16;;;5.56;73.11
64200;BME280;50516;52.272;5.136;2023-02-28T01:48:02;103203.78;;;5.48;73.29
64200;BME280;50516;52.272;5.136;2023-02-28T01:50:34;103209.41;;;5.46;73.38
64200;BME280;50516;52.272;5.136;2023-02-28T01:53:03;103200.34;;;5.54;73.08
64200;BME280;50516;52.272;5.136;2023-02-28T01:55:30;103197.78;;;5.53;73.25
64200;BME280;50516;52.272;5.136;2023-02-28T01:57:58;103196.25;;;5.50;73.37
64200;BME280;50516;52.272;5.136;2023-02-28T02:00:26;103199.78;;;5.59;73.14
64200;BME280;50516;52.272;5.136;2023-02-28T02:02:57;103193.47;;;5.58;72.82
64200;BME280;50516;52.272;5.136;2023-02-28T02:05:29;103199.09;;;5.57;73.00
64200;BME280;50516;52.272;5.136;2023-02-28T02:08:00;103198.97;;;5.50;73.08
64200;BME280;50516;52.272;5.136;2023-02-28T02:10:33;103199.47;;;5.54;73.18
64200;BME280;50516;52.272;5.136;2023-02-28T02:15:39;103194.00;;;5.54;72.92
64200;BME280;50516;52.272;5.136;2023-02-28T02:35:27;103191.38;;;5.69;72.57
64200;BME280;50516;52.272;5.136;2023-02-28T02:40:37;103189.19;;;5.64;72.85
64200;BME280;50516;52.272;5.136;2023-02-28T02:43:13;103186.28;;;5.65;72.92
64200;BME280;50516;52.272;5.136;2023-02-28T02:45:46;103181.38;;;5.61;73.01
64200;BME280;50516;52.272;5.136;2023-02-28T02:48:16;103188.72;;;5.60;72.96
64200;BME280;50516;52.272;5.136;2023-02-28T02:50:46;103191.06;;;5.63;73.17
64200;BME280;50516;52.272;5.136;2023-02-28T02:53:17;103190.03;;;5.64;72.96
64200;BME280;50516;52.272;5.136;2023-02-28T02:55:47;103191.56;;;5.67;72.87
64200;BME280;50516;52.272;5.136;2023-02-28T02:58:22;103185.78;;;5.62;72.52
64200;BME280;50516;52.272;5.136;2023-02-28T03:00:56;103185.59;;;5.63;73.05
64200;BME280;50516;52.272;5.136;2023-02-28T03:03:23;103186.66;;;5.62;73.04
64200;BME280;50516;52.272;5.136;2023-02-28T03:05:55;103190.22;;;5.63;73.26
64200;BME280;50516;52.272;5.136;2023-02-28T03:08:21;103188.03;;;5.58;73.26
64200;BME280;50516;52.272;5.136;2023-02-28T03:10:52;103190.75;;;5.58;73.18
64200;BME280;50516;52.272;5.136;2023-02-28T03:24:09;103180.16;;;5.63;73.22
64200;BME280;50516;52.272;5.136;2023-02-28T03:26:39;103176.94;;;5.60;73.36
64200;BME280;50516;52.272;5.136;2023-02-28T03:29:26;103169.44;;;5.62;73.40
64200;BME280;50516;52.272;5.136;2023-02-28T03:34:27;103172.16;;;5.62;73.61
64200;BME280;50516;52.272;5.136;2023-02-28T03:36:57;103169.06;;;5.65;73.45
64200;BME280;50516;52.272;5.136;2023-02-28T03:39:31;103174.50;;;5.65;73.28
64200;BME280;50516;52.272;5.136;2023-02-28T03:42:01;103183.75;;;5.64;73.58
64200;BME280;50516;52.272;5.136;2023-02-28T03:44:55;103181.75;;;5.58;73.52
64200;BME280;50516;52.272;5.136;2023-02-28T03:47:26;103180.03;;;5.57;73.42
64200;BME280;50516;52.272;5.136;2023-02-28T03:50:07;103184.94;;;5.61;73.13
64200;BME280;50516;52.272;5.136;2023-02-28T03:52:35;103188.19;;;5.57;73.27
64200;BME280;50516;52.272;5.136;2023-02-28T03:55:08;103189.06;;;5.57;73.32
64200;BME280;50516;52.272;5.136;2023-02-28T04:00:21;103186.66;;;5.62;73.83
64200;BME280;50516;52.272;5.136;2023-02-28T04:02:53;103186.94;;;5.67;73.39
64200;BME280;50516;52.272;5.136;2023-02-28T04:05:20;103181.66;;;5.66;73.49
64200;BME280;50516;52.272;5.136;2023-02-28T04:07:46;103185.94;;;5.69;73.50
64200;BME280;50516;52.272;5.136;2023-02-28T04:10:12;103186.59;;;5.71;73.57
64200;BME280;50516;52.272;5.136;2023-02-28T04:12:38;103200.22;;;5.71;73.65
64200;BME280;50516;52.272;5.136;2023-02-28T04:15:04;103202.28;;;5.69;73.23
64200;BME280;50516;52.272;5.136;2023-02-28T04:17:30;103190.88;;;5.65;72.74
64200;BME280;50516;52.272;5.136;2023-02-28T04:19:55;103187.97;;;5.66;72.32
64200;BME280;50516;52.272;5.136;2023-02-28T04:22:22;103194.47;;;5.65;72.08
64200;BME280;50516;52.272;5.136;2023-02-28T04:24:47;103195.84;;;5.61;71.96
64200;BME280;50516;52.272;5.136;2023-02-28T04:27:12;103189.19;;;5.64;71.67
64200;BME280;50516;52.272;5.136;2023-02-28T04:29:40;103194.09;;;5.69;71.87
64200;BME280;50516;52.272;5.136;2023-02-28T04:32:09;103195.59;;;5.71;72.04
64200;BME280;50516;52.272;5.136;2023-02-28T04:34:35;103195.13;;;5.67;72.01
64200;BME280;50516;52.272;5.136;2023-02-28T04:37:00;103193.41;;;5.66;72.10
64200;BME280;50516;52.272;5.136;2023-02-28T04:39:26;103195.13;;;5.44;72.64
64200;BME280;50516;52.272;5.136;2023-02-28T04:41:51;103187.59;;;5.46;72.80
64200;BME280;50516;52.272;5.136;2023-02-28T04:44:16;103194.94;;;5.46;72.95
64200;BME280;50516;52.272;5.136;2023-02-28T04:46:42;103198.16;;;5.49;73.10
64200;BME280;50516;52.272;5.136;2023-02-28T04:49:11;103195.34;;;5.35;73.47
64200;BME280;50516;52.272;5.136;2023-02-28T04:51:36;103198.38;;;5.40;73.25
64200;BME280;50516;52.272;5.136;2023-02-28T04:54:02;103198.88;;;5.43;73.12
64200;BME280;50516;52.272;5.136;2023-02-28T04:56:27;103191.53;;;5.44;73.43
64200;BME280;50516;52.272;5.136;2023-02-28T04:58:53;103188.50;;;5.39;73.81
64200;BME280;50516;52.272;5.136;2023-02-28T05:01:27;103186.81;;;5.38;74.28
64200;BME280;50516;52.272;5.136;2023-02-28T05:03:55;103182.03;;;5.40;73.69
64200;BME280;50516;52.272;5.136;2023-02-28T05:06:23;103180.88;;;5.34;73.79
64200;BME280;50516;52.272;5.136;2023-02-28T05:08:52;103178.94;;;5.43;74.05
64200;BME280;50516;52.272;5.136;2023-02-28T05:11:23;103183.72;;;5.41;74.26
64200;BME280;50516;52.272;5.136;2023-02-28T05:13:50;103175.19;;;5.44;74.28
64200;BME280;50516;52.272;5.136;2023-02-28T05:16:16;103179.59;;;5.45;74.29
64200;BME280;50516;52.272;5.136;2023-02-28T05:18:42;103181.69;;;5.43;74.65
64200;BME280;50516;52.272;5.136;2023-02-28T05:21:27;103188.81;;;5.44;75.22
64200;BME280;50516;52.272;5.136;2023-02-28T05:23:54;103183.59;;;5.34;75.36
64200;BME280;50516;52.272;5.136;2023-02-28T05:26:20;103200.81;;;5.35;75.61
64200;BME280;50516;52.272;5.136;2023-02-28T05:28:46;103182.44;;;5.28;76.47
64200;BME280;50516;52.272;5.136;2023-02-28T05:31:11;103189.56;;;5.29;77.02
64200;BME280;50516;52.272;5.136;2023-02-28T05:33:37;103193.34;;;5.28;76.97
64200;BME280;50516;52.272;5.136;2023-02-28T05:36:03;103190.97;;;5.25;76.84
64200;BME280;50516;52.272;5.136;2023-02-28T05:38:29;103191.63;;;5.27;77.11
64200;BME280;50516;52.272;5.136;2023-02-28T05:40:54;103197.25;;;5.26;77.25
64200;BME280;50516;52.272;5.136;2023-02-28T05:43:19;103191.38;;;5.14;77.98
64200;BME280;50516;52.272;5.136;2023-02-28T05:45:45;103191.56;;;5.12;77.43
64200;BME280;50516;52.272;5.136;2023-02-28T05:48:11;103194.09;;;5.14;77.26
64200;BME280;50516;52.272;5.136;2023-02-28T05:50:36;103188.34;;;5.09;77.75
64200;BME280;50516;52.272;5.136;2023-02-28T05:53:02;103184.44;;;5.03;78.09
64200;BME280;50516;52.272;5.136;2023-02-28T05:55:27;103203.00;;;5.00;77.37
64200;BME280;50516;52.272;5.136;2023-02-28T05:57:53;103202.00;;;4.92;77.57
64200;BME280;50516;52.272;5.136;2023-02-28T06:00:18;103201.03;;;4.85;77.30
64200;BME280;50516;52.272;5.136;2023-02-28T06:02:44;103201.03;;;4.85;75.78
64200;BME280;50516;52.272;5.136;2023-02-28T06:05:17;103202.41;;;4.73;75.59
64200;BME280;50516;52.272;5.136;2023-02-28T06:07:43;103203.28;;;4.73;75.37
64200;BME280;50516;52.272;5.136;2023-02-28T06:10:10;103206.69;;;4.75;75.07
64200;BME280;50516;52.272;5.136;2023-02-28T06:12:37;103206.38;;;4.62;74.67
64200;BME280;50516;52.272;5.136;2023-02-28T06:15:03;103199.38;;;4.68;74.82
64200;BME280;50516;52.272;5.136;2023-02-28T06:17:29;103206.53;;;4.69;74.53
64200;BME280;50516;52.272;5.136;2023-02-28T06:19:54;103209.44;;;4.67;74.55
64200;BME280;50516;52.272;5.136;2023-02-28T06:22:19;103213.84;;;4.68;74.85
64200;BME280;50516;52.272;5.136;2023-02-28T06:24:44;103209.91;;;4.71;74.17
64200;BME280;50516;52.272;5.136;2023-02-28T06:27:10;103218.94;;;4.63;73.77
64200;BME280;50516;52.272;5.136;2023-02-28T06:29:35;103218.28;;;4.61;73.76
64200;BME280;50516;52.272;5.136;2023-02-28T06:32:01;103220.16;;;4.61;74.09
64200;BME280;50516;52.272;5.136;2023-02-28T06:34:27;103228.00;;;4.55;74.61
64200;BME280;50516;52.272;5.136;2023-02-28T06:36:52;103221.03;;;4.45;74.32
64200;BME280;50516;52.272;5.136;2023-02-28T06:39:18;103227.31;;;4.45;74.92
64200;BME280;50516;52.272;5.136;2023-02-28T06:41:43;103221.88;;;4.45;74.64
64200;BME280;50516;52.272;5.136;2023-02-28T06:44:17;103234.31;;;4.48;75.00
64200;BME280;50516;52.272;5.136;2023-02-28T06:46:44;103224.97;;;4.34;75.04
64200;BME280;50516;52.272;5.136;2023-02-28T06:49:10;103237.38;;;4.36;75.66
64200;BME280;50516;52.272;5.136;2023-02-28T06:51:37;103241.94;;;4.36;75.79
64200;BME280;50516;52.272;5.136;2023-02-28T06:54:03;103237.06;;;4.31;75.72
64200;BME280;50516;52.272;5.136;2023-02-28T06:56:29;103237.56;;;4.27;76.29
64200;BME280;50516;52.272;5.136;2023-02-28T06:58:54;103241.28;;;4.26;76.11
64200;BME280;50516;52.272;5.136;2023-02-28T07:01:20;103243.50;;;4.22;76.73
64200;BME280;50516;52.272;5.136;2023-02-28T07:03:47;103230.94;;;4.21;77.06
64200;BME280;50516;52.272;5.136;2023-02-28T07:06:20;103253.72;;;4.20;77.20
64200;BME280;50516;52.272;5.136;2023-02-28T07:08:48;103247.25;;;4.21;77.30
64200;BME280;50516;52.272;5.136;2023-02-28T07:11:15;103257.28;;;4.20;77.24
64200;BME280;50516;52.272;5.136;2023-02-28T07:13:40;103252.34;;;4.24;77.49
64200;BME280;50516;52.272;5.136;2023-02-28T07:16:08;103267.81;;;4.24;77.31
64200;BME280;50516;52.272;5.136;2023-02-28T07:18:35;103261.00;;;4.19;77.66
64200;BME280;50516;52.272;5.136;2023-02-28T07:21:05;103259.00;;;4.22;77.49
64200;BME280;50516;52.272;5.136;2023-02-28T07:23:31;103264.44;;;4.22;77.98
64200;BME280;50516;52.272;5.136;2023-02-28T07:25:56;103261.19;;;4.18;77.49
64200;BME280;50516;52.272;5.136;2023-02-28T07:28:22;103249.78;;;4.23;77.75
64200;BME280;50516;52.272;5.136;2023-02-28T07:30:47;103270.53;;;4.24;77.93
64200;BME280;50516;52.272;5.136;2023-02-28T07:33:13;103261.16;;;4.26;77.99
64200;BME280;50516;52.272;5.136;2023-02-28T07:35:38;103255.91;;;4.25;77.98
64200;BME280;50516;52.272;5.136;2023-02-28T07:38:04;103260.84;;;4.13;78.80
64200;BME280;50516;52.272;5.136;2023-02-28T07:40:30;103259.16;;;4.12;78.55
64200;BME280;50516;52.272;5.136;2023-02-28T07:42:55;103256.59;;;4.27;78.41
64200;BME280;50516;52.272;5.136;2023-02-28T07:45:21;103256.44;;;4.28;78.35
64200;BME280;50516;52.272;5.136;2023-02-28T07:47:46;103259.34;;;4.10;78.87
64200;BME280;50516;52.272;5.136;2023-02-28T07:50:14;103254.56;;;4.29;78.61
64200;BME280;50516;52.272;5.136;2023-02-28T07:52:40;103247.75;;;4.16;78.64
64200;BME280;50516;52.272;5.136;2023-02-28T07:55:07;103253.69;;;4.03;79.61
64200;BME280;50516;52.272;5.136;2023-02-28T07:57:33;103249.28;;;4.19;79.37
64200;BME280;50516;52.272;5.136;2023-02-28T07:59:59;103254.22;;;4.24;78.81
64200;BME280;50516;52.272;5.136;2023-02-28T08:02:24;103246.25;;;4.14;79.53
64200;BME280;50516;52.272;5.136;2023-02-28T08:04:50;103246.06;;;4.24;79.19
64200;BME280;50516;52.272;5.136;2023-02-28T08:07:16;103250.09;;;4.36;78.81
64200;BME280;50516;52.272;5.136;2023-02-28T08:09:43;103250.63;;;4.56;78.16
64200;BME280;50516;52.272;5.136;2023-02-28T08:12:09;103244.66;;;4.36;78.81
64200;BME280;50516;52.272;5.136;2023-02-28T08:14:35;103257.03;;;4.63;77.99
64200;BME280;50516;52.272;5.136;2023-02-28T08:17:00;103253.47;;;4.63;77.85
64200;BME280;50516;52.272;5.136;2023-02-28T08:19:26;103257.91;;;4.64;77.59
64200;BME280;50516;52.272;5.136;2023-02-28T08:21:51;103248.38;;;4.68;78.03
64200;BME280;50516;52.272;5.136;2023-02-28T08:24:17;103249.03;;;4.70;77.83
64200;BME280;50516;52.272;5.136;2023-02-28T08:26:42;103241.53;;;4.80;77.82
64200;BME280;50516;52.272;5.136;2023-02-28T08:29:07;103248.66;;;4.81;78.22
64200;BME280;50516;52.272;5.136;2023-02-28T08:31:33;103249.03;;;4.78;78.31
64200;BME280;50516;52.272;5.136;2023-02-28T08:34:04;103251.59;;;4.80;78.39
64200;BME280;50516;52.272;5.136;2023-02-28T08:36:29;103242.22;;;4.82;78.18
64200;BME280;50516;52.272;5.136;2023-02-28T08:38:56;103246.28;;;4.86;78.51
64200;BME280;50516;52.272;5.136;2023-02-28T08:41:21;103252.91;;;4.84;78.66
64200;BME280;50516;52.272;5.136;2023-02-28T08:43:47;103253.28;;;4.81;78.58
64200;BME280;50516;52.272;5.136;2023-02-28T08:46:13;103256.47;;;4.84;78.90
64200;BME280;50516;52.272;5.136;2023-02-28T08:48:39;103247.97;;;4.87;78.69
64200;BME280;50516;52.272;5.136;2023-02-28T08:51:10;103252.53;;;4.95;78.69
64200;BME280;50516;52.272;5.136;2023-02-28T08:53:37;103256.41;;;5.09;78.01
64200;BME280;50516;52.272;5.136;2023-02-28T08:56:06;103266.59;;;5.15;78.30
64200;BME280;50516;52.272;5.136;2023-02-28T08:58:32;103258.22;;;5.25;78.03
64200;BME280;50516;52.272;5.136;2023-02-28T09:00:59;103251.69;;;5.34;77.90
64200;BME280;50516;52.272;5.136;2023-02-28T09:03:24;103264.75;;;5.47;77.36
64200;BME280;50516;52.272;5.136;2023-02-28T09:05:58;103260.53;;;5.67;77.23
64200;BME280;50516;52.272;5.136;2023-02-28T09:08:25;103260.78;;;5.81;76.86
64200;BME280;50516;52.272;5.136;2023-02-28T09:10:51;103265.88;;;5.84;77.16
64200;BME280;50516;52.272;5.136;2023-02-28T09:13:18;103268.53;;;5.92;77.33
64200;BME280;50516;52.272;5.136;2023-02-28T09:15:44;103271.59;;;5.97;77.18
64200;BME280;50516;52.272;5.136;2023-02-28T09:18:10;103268.84;;;6.06;76.85
64200;BME280;50516;52.272;5.136;2023-02-28T09:20:39;103273.06;;;6.08;77.09
64200;BME280;50516;52.272;5.136;2023-02-28T09:23:06;103275.91;;;6.15;77.02
64200;BME280;50516;52.272;5.136;2023-02-28T09:25:32;103274.16;;;6.22;76.56
64200;BME280;50516;52.272;5.136;2023-02-28T09:27:57;103270.00;;;6.26;76.99
64200;BME280;50516;52.272;5.136;2023-02-28T09:30:22;103273.91;;;6.32;76.37
64200;BME280;50516;52.272;5.136;2023-02-28T09:32:48;103269.00;;;6.27;76.41
64200;BME280;50516;52.272;5.136;2023-02-28T09:35:24;103270.00;;;6.26;75.20
64200;BME280;50516;52.272;5.136;2023-02-28T09:37:52;103276.19;;;6.20;74.19
64200;BME280;50516;52.272;5.136;2023-02-28T09:40:19;103270.69;;;6.28;74.48
64200;BME280;50516;52.272;5.136;2023-02-28T09:42:47;103269.03;;;6.42;74.25
64200;BME280;50516;52.272;5.136;2023-02-28T09:45:36;103267.09;;;6.51;73.41
64200;BME280;50516;52.272;5.136;2023-02-28T09:48:16;103273.28;;;6.45;73.08
64200;BME280;50516;52.272;5.136;2023-02-28T09:50:47;103270.47;;;6.53;72.45
64200;BME280;50516;52.272;5.136;2023-02-28T09:53:29;103279.31;;;6.55;71.11
64200;BME280;50516;52.272;5.136;2023-02-28T09:56:12;103290.88;;;6.57;72.04
64200;BME280;50516;52.272;5.136;2023-02-28T09:58:53;103281.56;;;6.51;69.53
64200;BME280;50516;52.272;5.136;2023-02-28T10:01:48;103278.56;;;6.61;70.86
64200;BME280;50516;52.272;5.136;2023-02-28T10:04:31;103278.69;;;6.83;70.51
64200;BME280;50516;52.272;5.136;2023-02-28T10:07:07;103276.06;;;7.04;69.18
64200;BME280;50516;52.272;5.136;2023-02-28T10:09:43;103281.97;;;7.23;69.14
64200;BME280;50516;52.272;5.136;2023-02-28T10:12:11;103268.47;;;7.36;68.75
64200;BME280;50516;52.272;5.136;2023-02-28T10:14:40;103276.66;;;7.36;68.43
64200;BME280;50516;52.272;5.136;2023-02-28T10:17:18;103276.38;;;7.46;67.32
64200;BME280;50516;52.272;5.136;2023-02-28T10:19:59;103279.00;;;7.54;66.27
64200;BME280;50516;52.272;5.136;2023-02-28T10:25:28;103278.72;;;7.64;65.60
64200;BME280;50516;52.272;5.136;2023-02-28T10:28:00;103268.56;;;7.79;65.28
64200;BME280;50516;52.272;5.136;2023-02-28T10:30:27;103274.03;;;7.79;65.37
64200;BME280;50516;52.272;5.136;2023-02-28T10:32:52;103266.94;;;7.85;63.14
64200;BME280;50516;52.272;5.136;2023-02-28T10:35:21;103263.91;;;7.80;62.88
64200;BME280;50516;52.272;5.136;2023-02-28T10:37:50;103263.41;;;7.91;63.29
64200;BME280;50516;52.272;5.136;2023-02-28T10:43:01;103259.63;;;7.92;60.83
64200;BME280;50516;52.272;5.136;2023-02-28T10:45:29;103267.31;;;8.03;61.68
64200;BME280;50516;52.272;5.136;2023-02-28T10:48:01;103258.84;;;8.20;60.38
64200;BME280;50516;52.272;5.136;2023-02-28T10:50:51;103253.91;;;8.58;60.09
64200;BME280;50516;52.272;5.136;2023-02-28T10:56:14;103258.13;;;8.54;57.04
64200;BME280;50516;52.272;5.136;2023-02-28T11:03:48;103246.06;;;8.49;53.46
64200;BME280;50516;52.272;5.136;2023-02-28T11:06:32;103249.22;;;8.52;54.31
64200;BME280;50516;52.272;5.136;2023-02-28T11:09:00;103245.94;;;8.64;52.13
64200;BME280;50516;52.272;5.136;2023-02-28T11:11:28;103245.19;;;8.76;52.14
64200;BME280;50516;52.272;5.136;2023-02-28T11:14:03;103247.25;;;8.68;49.69
64200;BME280;50516;52.272;5.136;2023-02-28T11:16:34;103246.47;;;8.81;50.62
64200;BME280;50516;52.272;5.136;2023-02-28T11:19:01;103236.75;;;8.78;48.37
64200;BME280;50516;52.272;5.136;2023-02-28T11:21:31;103234.75;;;8.93;49.00
64200;BME280;50516;52.272;5.136;2023-02-28T11:26:45;103222.84;;;9.14;49.42
64200;BME280;50516;52.272;5.136;2023-02-28T11:31:42;103223.81;;;9.00;46.75
64200;BME280;50516;52.272;5.136;2023-02-28T11:34:23;103214.13;;;9.04;46.74
64200;BME280;50516;52.272;5.136;2023-02-28T11:36:51;103208.19;;;8.94;45.26
64200;BME280;50516;52.272;5.136;2023-02-28T11:39:18;103199.72;;;8.82;46.29
64200;BME280;50516;52.272;5.136;2023-02-28T11:44:39;103215.09;;;8.48;44.66
64200;BME280;50516;52.272;5.136;2023-02-28T11:50:47;103200.63;;;8.33;44.46
64200;BME280;50516;52.272;5.136;2023-02-28T11:56:10;103196.00;;;8.62;44.91
64200;BME280;50516;52.272;5.136;2023-02-28T12:12:33;103180.22;;;8.35;42.96
64200;BME280;50516;52.272;5.136;2023-02-28T12:27:02;103179.56;;;8.62;44.09
64200;BME280;50516;52.272;5.136;2023-02-28T12:29:34;103171.75;;;8.58;44.21
64200;BME280;50516;52.272;5.136;2023-02-28T12:32:11;103178.94;;;8.59;43.20
64200;BME280;50516;52.272;5.136;2023-02-28T12:34:45;103175.38;;;8.37;42.47
64200;BME280;50516;52.272;5.136;2023-02-28T12:37:31;103168.31;;;8.21;42.71
64200;BME280;50516;52.272;5.136;2023-02-28T12:40:03;103167.94;;;7.96;42.47
64200;BME280;50516;52.272;5.136;2023-02-28T12:42:38;103153.75;;;8.14;42.66
64200;BME280;50516;52.272;5.136;2023-02-28T12:45:18;103159.88;;;8.16;42.09
64200;BME280;50516;52.272;5.136;2023-02-28T12:47:47;103162.34;;;8.39;42.31
64200;BME280;50516;52.272;5.136;2023-02-28T12:50:14;103160.81;;;8.02;41.73
64200;BME280;50516;52.272;5.136;2023-02-28T12:52:54;103161.25;;;8.05;42.24
64200;BME280;50516;52.272;5.136;2023-02-28T12:55:33;103156.53;;;8.21;42.37
64200;BME280;50516;52.272;5.136;2023-02-28T13:00:55;103150.13;;;8.07;41.65
64200;BME280;50516;52.272;5.136;2023-02-28T13:09:04;103145.78;;;8.19;41.89
64200;BME280;50516;52.272;5.136;2023-02-28T13:11:40;103155.34;;;8.02;42.27
64200;BME280;50516;52.272;5.136;2023-02-28T13:14:18;103142.06;;;8.27;41.94
64200;BME280;50516;52.272;5.136;2023-02-28T13:19:43;103132.66;;;8.08;41.98
64200;BME280;50516;52.272;5.136;2023-02-28T13:24:53;103135.25;;;7.66;43.08
64200;BME280;50516;52.272;5.136;2023-02-28T13:27:33;103123.63;;;7.58;42.46
64200;BME280;50516;52.272;5.136;2023-02-28T13:29:59;103125.75;;;7.84;43.28
64200;BME280;50516;52.272;5.136;2023-02-28T13:42:48;103119.59;;;7.75;49.08
64200;BME280;50516;52.272;5.136;2023-02-28T13:48:02;103102.75;;;7.78;50.35
64200;BME280;50516;52.272;5.136;2023-02-28T13:58:28;103109.38;;;7.62;53.27
64200;BME280;50516;52.272;5.136;2023-02-28T14:06:35;103104.28;;;7.38;55.39
64200;BME280;50516;52.272;5.136;2023-02-28T14:11:40;103108.75;;;7.67;51.73
64200;BME280;50516;52.272;5.136;2023-02-28T14:14:08;103110.75;;;7.52;44.94
64200;BME280;50516;52.272;5.136;2023-02-28T14:16:40;103099.31;;;7.41;43.74
64200;BME280;50516;52.272;5.136;2023-02-28T14:19:27;103103.97;;;7.47;42.81
64200;BME280;50516;52.272;5.136;2023-02-28T14:30:07;103101.09;;;7.77;42.05
64200;BME280;50516;52.272;5.136;2023-02-28T14:38:43;103093.03;;;7.69;41.04
64200;BME280;50516;52.272;5.136;2023-02-28T14:41:22;103107.50;;;7.41;40.93
64200;BME280;50516;52.272;5.136;2023-02-28T14:43:52;103092.25;;;7.54;40.19
64200;BME280;50516;52.272;5.136;2023-02-28T14:46:18;103093.69;;;7.49;40.45
64200;BME280;50516;52.272;5.136;2023-02-28T14:48:46;103088.34;;;7.20;52.35
64200;BME280;50516;52.272;5.136;2023-02-28T14:51:12;103093.50;;;7.29;54.10
64200;BME280;50516;52.272;5.136;2023-02-28T14:53:43;103086.66;;;7.40;55.61
64200;BME280;50516;52.272;5.136;2023-02-28T14:56:26;103088.94;;;7.15;57.04
64200;BME280;50516;52.272;5.136;2023-02-28T14:58:55;103106.25;;;6.86;58.99
64200;BME280;50516;52.272;5.136;2023-02-28T15:01:22;103100.28;;;6.61;60.17
64200;BME280;50516;52.272;5.136;2023-02-28T15:03:48;103088.88;;;6.57;60.78
64200;BME280;50516;52.272;5.136;2023-02-28T15:06:21;103093.94;;;6.90;59.74
64200;BME280;50516;52.272;5.136;2023-02-28T15:08:48;103099.44;;;6.75;60.79
64200;BME280;50516;52.272;5.136;2023-02-28T15:11:33;103102.88;;;6.84;60.53
64200;BME280;50516;52.272;5.136;2023-02-28T15:13:58;103094.34;;;6.72;60.66
64200;BME280;50516;52.272;5.136;2023-02-28T15:16:56;103106.97;;;6.58;60.93
64200;BME280;50516;52.272;5.136;2023-02-28T15:19:26;103104.28;;;6.28;61.35
64200;BME280;50516;52.272;5.136;2023-02-28T15:22:00;103097.09;;;6.27;61.87
64200;BME280;50516;52.272;5.136;2023-02-28T15:24:34;103090.59;;;6.58;61.37
64200;BME280;50516;52.272;5.136;2023-02-28T15:27:04;103090.69;;;6.50;61.41
64200;BME280;50516;52.272;5.136;2023-02-28T15:29:37;103090.25;;;6.46;61.20
64200;BME280;50516;52.272;5.136;2023-02-28T15:32:07;103092.41;;;6.51;61.70
64200;BME280;50516;52.272;5.136;2023-02-28T15:34:41;103097.28;;;6.40;60.85
64200;BME280;50516;52.272;5.136;2023-02-28T15:39:52;103091.81;;;6.70;59.48
64200;BME280;50516;52.272;5.136;2023-02-28T15:42:20;103087.25;;;6.78;59.01